MSC Ludovica — HPAF — position and weather

sailwx.info

Track history (hours):
 
Tides and Currents Weather Stations Pressure Air Temp Water Temp Dewpoint Dewpoint Depression Visibility Wind Speed Wind Dir Waves Ship Positions

MSC Ludovica

Last reported at 2016-Nov-27 03:18 UTC. Time now 2016-Dec-04 22:28 UTC.
Position N 29°55' W 089°58'.

Length 301 m; draft 10.4 m.

Type: Ship. MMSI: 351248000.

Date/timePositionNaut miles runAvg speedWind from/ knotsBaromVisibWave heightAir tempDewpointWater temp
2016-Nov-27 03:18N 29°55' W 089°58'6 8.2
2016-Nov-27 02:33N 29°55' W 090°05'1 0.5
2016-Nov-26 23:23N 29°55' W 090°07'0 0.0
2016-Nov-26 21:20N 29°55' W 090°07'0 0.0
2016-Nov-26 12:14N 29°55' W 090°07'0 0.0
2016-Nov-26 11:34N 29°55' W 090°07'6 5.6
2016-Nov-26 10:34N 29°57' W 090°01'203 7.2
2016-Nov-25 06:11N 28°40' W 093°36'2314.3
2016-Nov-25 04:32N 28°51' W 093°60'1414.5
2016-Nov-25 03:33N 28°55' W 094°16'1414.0
2016-Nov-25 02:33N 29°06' W 094°26'1616.1
2016-Nov-25 01:32N 29°18' W 094°38'1211.9
2016-Nov-25 00:30N 29°25' W 094°50'1212.1
2016-Nov-24 23:33N 29°35' W 094°56'7 6.8
2016-Nov-24 22:32N 29°41' W 094°60'1 0.3
2016-Nov-24 20:33N 29°41' W 095°00'0 0.0
2016-Nov-24 18:15N 29°41' W 095°00'0 0.0
2016-Nov-24 14:12N 29°41' W 095°00'0 0.0
2016-Nov-24 13:21N 29°41' W 095°00'0 0.0
2016-Nov-24 08:30N 29°41' W 095°00'0 0.1
2016-Nov-24 05:33N 29°41' W 095°00'1 0.4
2016-Nov-24 04:19N 29°41' W 094°59'0 0.0
2016-Nov-24 03:31N 29°41' W 094°59'0 0.0
2016-Nov-24 02:22N 29°41' W 094°59'0 0.0
2016-Nov-24 01:19N 29°41' W 094°59'0 0.0
2016-Nov-24 00:31N 29°41' W 094°59'0 0.0
2016-Nov-23 23:25N 29°41' W 094°59'0 0.0
2016-Nov-23 22:31N 29°41' W 094°59'0 0.0
2016-Nov-23 21:22N 29°41' W 094°59'0 0.0
2016-Nov-23 20:28N 29°41' W 094°59'0 0.0
2016-Nov-23 19:19N 29°41' W 094°59'0 0.0
2016-Nov-23 18:31N 29°41' W 094°59'0 0.0
2016-Nov-23 17:31N 29°41' W 094°59'0 0.0
2016-Nov-23 16:31N 29°41' W 094°59'0 0.0
2016-Nov-23 15:31N 29°41' W 094°59'0 0.0
2016-Nov-23 14:31N 29°41' W 094°59'0 0.0
2016-Nov-23 13:25N 29°41' W 094°59'0 0.0
2016-Nov-23 12:25N 29°41' W 094°59'0 0.0
2016-Nov-23 11:31N 29°41' W 094°59'0 0.0
2016-Nov-23 09:07N 29°41' W 094°59'0 0.0
2016-Nov-23 08:31N 29°41' W 094°59'0 0.0
2016-Nov-23 07:19N 29°41' W 094°59'0 0.0
2016-Nov-23 03:04N 29°41' W 094°59'0 0.0
2016-Nov-23 02:07N 29°41' W 094°59'0 0.0
2016-Nov-23 00:31N 29°41' W 094°59'5 5.0
2016-Nov-22 23:33N 29°37' W 094°57'1111.1
2016-Nov-22 22:33N 29°27' W 094°51'  
2016-Nov-19 05:34N 19°39' W 096°06'2020.4
2016-Nov-19 04:34N 19°20' W 095°58'1010.4
2016-Nov-19 03:34N 19°12' W 096°06'2 2.3
2016-Nov-19 02:31N 19°13' W 096°08'0 0.0
2016-Nov-19 01:31N 19°13' W 096°08'0 0.0
2016-Nov-19 00:31N 19°13' W 096°08'0 0.0
2016-Nov-18 23:31N 19°13' W 096°08'0 0.0
2016-Nov-18 20:31N 19°13' W 096°08'0 0.0
2016-Nov-18 18:22N 19°13' W 096°08'0 0.0
2016-Nov-18 17:31N 19°13' W 096°08'0 0.0
2016-Nov-18 14:31N 19°13' W 096°08'0 0.0
2016-Nov-18 12:28N 19°13' W 096°08'1 0.8
2016-Nov-18 11:33N 19°12' W 096°08'19 9.4
2016-Nov-18 09:33N 19°14' W 095°48'  
Track history (hours):
 
Tides and Currents Weather Stations Pressure Air Temp Water Temp Dewpoint Dewpoint Depression Visibility Wind Speed Wind Dir Waves Ship Positions

MSC Ludovica

Last reported at 2016-Nov-27 03:18 UTC. Time now 2016-Dec-04 22:28 UTC.
Position N 29°55' W 089°58'.

Length 301 m; draft 10.4 m.

Type: Ship. MMSI: 351248000.

Date/timePositionNaut miles runAvg speedWind from/ knotsBaromVisibWave heightAir tempDewpointWater temp
2016-Nov-27 03:18N 29°55' W 089°58'6 8.2
2016-Nov-27 02:33N 29°55' W 090°05'1 0.5
2016-Nov-26 23:23N 29°55' W 090°07'0 0.0
2016-Nov-26 21:20N 29°55' W 090°07'0 0.0
2016-Nov-26 12:14N 29°55' W 090°07'0 0.0
2016-Nov-26 11:34N 29°55' W 090°07'6 5.6
2016-Nov-26 10:34N 29°57' W 090°01'203 7.2
2016-Nov-25 06:11N 28°40' W 093°36'2314.3
2016-Nov-25 04:32N 28°51' W 093°60'1414.5
2016-Nov-25 03:33N 28°55' W 094°16'1414.0
2016-Nov-25 02:33N 29°06' W 094°26'1616.1
2016-Nov-25 01:32N 29°18' W 094°38'1211.9
2016-Nov-25 00:30N 29°25' W 094°50'1212.1
2016-Nov-24 23:33N 29°35' W 094°56'7 6.8
2016-Nov-24 22:32N 29°41' W 094°60'1 0.3
2016-Nov-24 20:33N 29°41' W 095°00'0 0.0
2016-Nov-24 18:15N 29°41' W 095°00'0 0.0
2016-Nov-24 14:12N 29°41' W 095°00'0 0.0
2016-Nov-24 13:21N 29°41' W 095°00'0 0.0
2016-Nov-24 08:30N 29°41' W 095°00'0 0.1
2016-Nov-24 05:33N 29°41' W 095°00'1 0.4
2016-Nov-24 04:19N 29°41' W 094°59'0 0.0
2016-Nov-24 03:31N 29°41' W 094°59'0 0.0
2016-Nov-24 02:22N 29°41' W 094°59'0 0.0
2016-Nov-24 01:19N 29°41' W 094°59'0 0.0
2016-Nov-24 00:31N 29°41' W 094°59'0 0.0
2016-Nov-23 23:25N 29°41' W 094°59'0 0.0
2016-Nov-23 22:31N 29°41' W 094°59'0 0.0
2016-Nov-23 21:22N 29°41' W 094°59'0 0.0
2016-Nov-23 20:28N 29°41' W 094°59'0 0.0
2016-Nov-23 19:19N 29°41' W 094°59'0 0.0
2016-Nov-23 18:31N 29°41' W 094°59'0 0.0
2016-Nov-23 17:31N 29°41' W 094°59'0 0.0
2016-Nov-23 16:31N 29°41' W 094°59'0 0.0
2016-Nov-23 15:31N 29°41' W 094°59'0 0.0
2016-Nov-23 14:31N 29°41' W 094°59'0 0.0
2016-Nov-23 13:25N 29°41' W 094°59'0 0.0
2016-Nov-23 12:25N 29°41' W 094°59'0 0.0
2016-Nov-23 11:31N 29°41' W 094°59'0 0.0
2016-Nov-23 09:07N 29°41' W 094°59'0 0.0
2016-Nov-23 08:31N 29°41' W 094°59'0 0.0
2016-Nov-23 07:19N 29°41' W 094°59'0 0.0
2016-Nov-23 03:04N 29°41' W 094°59'0 0.0
2016-Nov-23 02:07N 29°41' W 094°59'0 0.0
2016-Nov-23 00:31N 29°41' W 094°59'5 5.0
2016-Nov-22 23:33N 29°37' W 094°57'1111.1
2016-Nov-22 22:33N 29°27' W 094°51'  
2016-Nov-19 05:34N 19°39' W 096°06'2020.4
2016-Nov-19 04:34N 19°20' W 095°58'1010.4
2016-Nov-19 03:34N 19°12' W 096°06'2 2.3
2016-Nov-19 02:31N 19°13' W 096°08'0 0.0
2016-Nov-19 01:31N 19°13' W 096°08'0 0.0
2016-Nov-19 00:31N 19°13' W 096°08'0 0.0
2016-Nov-18 23:31N 19°13' W 096°08'0 0.0
2016-Nov-18 20:31N 19°13' W 096°08'0 0.0
2016-Nov-18 18:22N 19°13' W 096°08'0 0.0
2016-Nov-18 17:31N 19°13' W 096°08'0 0.0
2016-Nov-18 14:31N 19°13' W 096°08'0 0.0
2016-Nov-18 12:28N 19°13' W 096°08'1 0.8
2016-Nov-18 11:33N 19°12' W 096°08'19 9.4
2016-Nov-18 09:33N 19°14' W 095°48'  

Dump ship's entire track history